Time;durP1;ratioP1;P1;durP2;ratioP2;P2;SDS_P1;SDS_P2;PMS_P1;PMS_P2;Temp;Humidity;BMP_temperature;BMP_pressure;BME280_temperature;BME280_humidity;BME280_pressure;Samples;Min_cycle;Max_cycle;Signal;HPM_P1;HPM_P2
2023/05/04 00:00:51;;;;;;;6.10;3.53;;;;;;;;;;5038453;28;20099;-78
2023/05/04 00:03:17;;;;;;;6.20;3.95;;;;;;;;;;5038106;28;20259;-78
2023/05/04 00:05:42;;;;;;;6.70;3.70;;;;;;;;;;5037072;28;20025;-78
2023/05/04 00:08:07;;;;;;;7.88;3.88;;;;;;;;;;5036854;28;20025;-78
2023/05/04 00:10:33;;;;;;;10.40;4.03;;;;;;;;;;5038709;28;20079;-78
2023/05/04 00:12:58;;;;;;;8.25;4.00;;;;;;;;;;5035715;28;20102;-77
2023/05/04 00:15:23;;;;;;;6.37;4.10;;;;;;;;;;5038978;28;20044;-79
2023/05/04 00:17:48;;;;;;;7.20;4.10;;;;;;;;;;5038215;28;20255;-79
2023/05/04 00:20:14;;;;;;;9.88;4.05;;;;;;;;;;5038135;28;20025;-77
2023/05/04 00:22:39;;;;;;;7.50;3.95;;;;;;;;;;5038628;28;20036;-79
2023/05/04 00:25:05;;;;;;;5.38;3.67;;;;;;;;;;5038749;28;20069;-77
2023/05/04 00:27:30;;;;;;;4.82;3.63;;;;;;;;;;5038634;28;20063;-79
2023/05/04 00:29:56;;;;;;;5.65;3.58;;;;;;;;;;5037760;28;20029;-78
2023/05/04 00:32:21;;;;;;;6.68;3.78;;;;;;;;;;5036723;28;20034;-78
2023/05/04 00:34:47;;;;;;;7.53;3.80;;;;;;;;;;5037679;28;20076;-79
2023/05/04 00:37:12;;;;;;;6.70;3.80;;;;;;;;;;5036172;28;20320;-77
2023/05/04 00:39:37;;;;;;;5.80;3.50;;;;;;;;;;5037039;28;20025;-77
2023/05/04 00:42:03;;;;;;;5.70;3.40;;;;;;;;;;5036535;28;20258;-78
2023/05/04 00:44:28;;;;;;;6.43;3.97;;;;;;;;;;5038237;28;20258;-79
2023/05/04 00:46:54;;;;;;;6.03;3.78;;;;;;;;;;5036328;28;20116;-77
2023/05/04 00:49:20;;;;;;;8.30;3.78;;;;;;;;;;5036576;28;20032;-78
2023/05/04 00:51:46;;;;;;;6.57;3.80;;;;;;;;;;5037095;28;20112;-78
2023/05/04 00:54:15;;;;;;;7.82;4.00;;;;;;;;;;5037744;28;20424;-78
2023/05/04 00:56:42;;;;;;;7.00;3.83;;;;;;;;;;5036048;28;20423;-78
2023/05/04 00:59:07;;;;;;;6.63;3.50;;;;;;;;;;5036438;28;20496;-78
2023/05/04 01:01:32;;;;;;;6.10;3.42;;;;;;;;;;5035514;28;20025;-78
2023/05/04 01:03:58;;;;;;;5.40;3.47;;;;;;;;;;5035084;28;20022;-78
2023/05/04 01:06:51;;;;;;;6.97;3.83;;;;;;;;;;5036281;28;20265;-77
2023/05/04 01:09:25;;;;;;;6.15;3.67;;;;;;;;;;5037509;28;20106;-77
2023/05/04 01:12:06;;;;;;;7.20;3.60;;;;;;;;;;5038327;28;20048;-78
2023/05/04 01:14:33;;;;;;;7.15;3.75;;;;;;;;;;5037934;28;20022;-79
2023/05/04 01:16:59;;;;;;;7.65;3.53;;;;;;;;;;5036592;28;20385;-78
2023/05/04 01:19:26;;;;;;;6.60;3.83;;;;;;;;;;5037650;28;20036;-78
2023/05/04 01:21:52;;;;;;;6.47;3.85;;;;;;;;;;5036217;28;20507;-80
2023/05/04 01:24:18;;;;;;;7.25;3.53;;;;;;;;;;5038148;28;20025;-80
2023/05/04 01:26:45;;;;;;;6.53;3.78;;;;;;;;;;5037077;28;20124;-79
2023/05/04 01:29:16;;;;;;;6.90;3.70;;;;;;;;;;5037649;28;20112;-80
2023/05/04 01:31:44;;;;;;;13.35;4.10;;;;;;;;;;5037639;28;20025;-79
2023/05/04 01:34:11;;;;;;;6.53;3.60;;;;;;;;;;5035553;28;20484;-78
2023/05/04 01:36:37;;;;;;;6.82;3.88;;;;;;;;;;5035972;28;20029;-79
2023/05/04 01:39:03;;;;;;;6.18;3.80;;;;;;;;;;5035901;28;20124;-80
2023/05/04 01:41:29;;;;;;;8.05;3.80;;;;;;;;;;5036589;28;20057;-78
2023/05/04 01:43:54;;;;;;;7.95;3.65;;;;;;;;;;5033696;28;20507;-78
2023/05/04 01:46:20;;;;;;;6.90;3.88;;;;;;;;;;5034741;28;20547;-78
2023/05/04 01:48:45;;;;;;;8.93;3.97;;;;;;;;;;5036837;28;20535;-78
2023/05/04 01:51:10;;;;;;;7.82;3.65;;;;;;;;;;5035829;28;20072;-79
2023/05/04 01:53:36;;;;;;;8.02;3.70;;;;;;;;;;5036754;28;20025;-78
2023/05/04 01:56:02;;;;;;;8.00;3.67;;;;;;;;;;5036064;28;20036;-79
2023/05/04 01:58:27;;;;;;;6.13;4.00;;;;;;;;;;5036671;28;20254;-78
2023/05/04 02:00:52;;;;;;;5.93;3.40;;;;;;;;;;5036609;28;20096;-78
2023/05/04 02:03:17;;;;;;;6.40;3.90;;;;;;;;;;5037062;28;20340;-78
2023/05/04 02:05:42;;;;;;;6.87;3.83;;;;;;;;;;5035509;28;20266;-77
2023/05/04 02:08:08;;;;;;;9.75;3.83;;;;;;;;;;5035029;28;20333;-79
2023/05/04 02:10:33;;;;;;;5.43;3.80;;;;;;;;;;5035557;28;20489;-78
2023/05/04 02:12:59;;;;;;;7.22;3.42;;;;;;;;;;5034516;28;20270;-79
2023/05/04 02:15:24;;;;;;;7.03;3.70;;;;;;;;;;5036813;28;20025;-79
2023/05/04 02:17:50;;;;;;;6.43;3.80;;;;;;;;;;5035000;28;20093;-78
2023/05/04 02:20:15;;;;;;;9.73;3.42;;;;;;;;;;5036109;28;20301;-78
2023/05/04 02:22:40;;;;;;;6.40;3.47;;;;;;;;;;5036114;28;20025;-77
2023/05/04 02:25:06;;;;;;;5.23;3.57;;;;;;;;;;5035898;28;20036;-78
2023/05/04 02:27:31;;;;;;;8.77;3.72;;;;;;;;;;5034338;28;20278;-78
2023/05/04 02:29:57;;;;;;;6.93;3.60;;;;;;;;;;5035982;28;20631;-79
2023/05/04 02:32:23;;;;;;;12.32;3.60;;;;;;;;;;5035520;28;20036;-78
2023/05/04 02:34:48;;;;;;;7.70;3.42;;;;;;;;;;5035358;28;20025;-79
2023/05/04 02:37:15;;;;;;;7.20;3.90;;;;;;;;;;5034731;28;20033;-79
2023/05/04 02:39:40;;;;;;;7.05;3.53;;;;;;;;;;5036132;28;20265;-79
2023/05/04 02:42:05;;;;;;;8.07;4.10;;;;;;;;;;5035626;28;20029;-78
2023/05/04 02:44:30;;;;;;;6.07;3.67;;;;;;;;;;5035398;28;20064;-78
2023/05/04 02:46:56;;;;;;;6.05;3.58;;;;;;;;;;5032919;28;20295;-77
2023/05/04 02:49:21;;;;;;;6.87;4.07;;;;;;;;;;5033262;28;20040;-78
2023/05/04 02:51:46;;;;;;;7.75;4.00;;;;;;;;;;5034267;28;20259;-78
2023/05/04 02:54:11;;;;;;;10.20;4.13;;;;;;;;;;5034450;28;20029;-79
2023/05/04 02:56:36;;;;;;;7.97;3.80;;;;;;;;;;5037493;28;20032;-78
2023/05/04 02:59:02;;;;;;;6.03;3.90;;;;;;;;;;5039995;28;20251;-78
2023/05/04 03:01:27;;;;;;;7.07;3.70;;;;;;;;;;5039962;28;20261;-79
2023/05/04 03:03:52;;;;;;;10.53;4.93;;;;;;;;;;5038869;28;20250;-79
2023/05/04 03:06:17;;;;;;;8.53;3.90;;;;;;;;;;5039452;28;20254;-78
2023/05/04 03:08:43;;;;;;;5.50;4.10;;;;;;;;;;5039552;28;20282;-78
2023/05/04 03:11:08;;;;;;;10.70;4.50;;;;;;;;;;5039325;28;20250;-78
2023/05/04 03:13:33;;;;;;;4.73;3.80;;;;;;;;;;5037560;28;20265;-79
2023/05/04 03:15:58;;;;;;;5.63;3.87;;;;;;;;;;5037939;28;20262;-78
2023/05/04 03:18:23;;;;;;;8.03;4.40;;;;;;;;;;5038444;28;20336;-78
2023/05/04 03:20:49;;;;;;;7.23;4.10;;;;;;;;;;5036871;28;20286;-79
2023/05/04 03:23:14;;;;;;;7.28;4.40;;;;;;;;;;5039048;28;20266;-79
2023/05/04 03:25:40;;;;;;;8.40;4.25;;;;;;;;;;5038606;28;20038;-79
2023/05/04 03:28:05;;;;;;;6.55;4.35;;;;;;;;;;5036864;28;20060;-79
2023/05/04 03:30:30;;;;;;;7.85;4.43;;;;;;;;;;5038213;28;20033;-78
2023/05/04 03:32:55;;;;;;;13.50;4.17;;;;;;;;;;5036446;28;20025;-78
2023/05/04 03:35:21;;;;;;;6.30;4.17;;;;;;;;;;5036894;28;20278;-77
2023/05/04 03:37:46;;;;;;;8.13;4.20;;;;;;;;;;5038325;28;20250;-78
2023/05/04 03:40:11;;;;;;;7.93;4.40;;;;;;;;;;5038243;28;20540;-76
2023/05/04 03:42:37;;;;;;;7.78;3.90;;;;;;;;;;5038321;28;20037;-78
2023/05/04 03:45:02;;;;;;;11.23;4.22;;;;;;;;;;5038418;28;20476;-78
2023/05/04 03:47:28;;;;;;;12.95;4.10;;;;;;;;;;5038092;28;21883;-78
2023/05/04 03:49:53;;;;;;;7.65;4.35;;;;;;;;;;5038356;28;20057;-78
2023/05/04 03:52:18;;;;;;;8.60;4.40;;;;;;;;;;5038166;28;20068;-78
2023/05/04 03:54:43;;;;;;;7.32;4.38;;;;;;;;;;5038257;28;20259;-79
2023/05/04 03:57:09;;;;;;;6.97;4.37;;;;;;;;;;5037198;28;20022;-77
2023/05/04 03:59:34;;;;;;;6.78;4.10;;;;;;;;;;5035277;28;20263;-79
2023/05/04 04:02:00;;;;;;;8.48;4.57;;;;;;;;;;5037108;28;20104;-79
2023/05/04 04:04:26;;;;;;;7.22;4.00;;;;;;;;;;5038659;28;20028;-77
2023/05/04 04:06:51;;;;;;;6.95;4.03;;;;;;;;;;5036563;28;20021;-79
2023/05/04 04:09:17;;;;;;;6.32;4.22;;;;;;;;;;5038327;28;20018;-78
2023/05/04 04:11:42;;;;;;;7.40;4.03;;;;;;;;;;5038978;28;20025;-78
2023/05/04 04:14:07;;;;;;;12.07;6.18;;;;;;;;;;5037125;28;20032;-78
2023/05/04 04:16:32;;;;;;;9.53;5.70;;;;;;;;;;5038476;28;20028;-79
2023/05/04 04:18:57;;;;;;;9.20;5.30;;;;;;;;;;5036912;28;20357;-77
2023/05/04 04:21:23;;;;;;;10.38;5.55;;;;;;;;;;5037709;28;20037;-79
2023/05/04 04:23:48;;;;;;;8.20;4.97;;;;;;;;;;5037863;28;20033;-78
2023/05/04 04:26:14;;;;;;;12.77;5.57;;;;;;;;;;5038030;28;20025;-79
2023/05/04 04:28:39;;;;;;;10.60;4.60;;;;;;;;;;5038253;28;20361;-79
2023/05/04 04:31:04;;;;;;;9.00;4.38;;;;;;;;;;5037880;28;20155;-78
2023/05/04 04:33:30;;;;;;;6.87;4.10;;;;;;;;;;5037067;28;20044;-79
2023/05/04 04:35:55;;;;;;;9.68;4.13;;;;;;;;;;5037256;28;20258;-78
2023/05/04 04:38:20;;;;;;;8.15;4.10;;;;;;;;;;5037864;28;20469;-78
2023/05/04 04:40:46;;;;;;;8.63;4.60;;;;;;;;;;5036373;28;20049;-77
2023/05/04 04:43:11;;;;;;;7.70;4.38;;;;;;;;;;5037259;28;20033;-77
2023/05/04 04:45:38;;;;;;;8.63;4.57;;;;;;;;;;5037981;28;20029;-79
2023/05/04 04:48:03;;;;;;;8.95;4.68;;;;;;;;;;5037203;28;20029;-78
2023/05/04 04:50:28;;;;;;;11.13;4.97;;;;;;;;;;5037860;28;20365;-79
2023/05/04 04:52:54;;;;;;;6.45;4.55;;;;;;;;;;5036168;28;20022;-79
2023/05/04 04:55:20;;;;;;;8.20;4.53;;;;;;;;;;5038162;28;20076;-79
2023/05/04 04:57:45;;;;;;;11.52;4.53;;;;;;;;;;5036514;28;20511;-79
2023/05/04 05:00:14;;;;;;;9.50;4.57;;;;;;;;;;5037819;28;20397;-80
2023/05/04 05:02:39;;;;;;;8.43;4.07;;;;;;;;;;5035579;28;20476;-79
2023/05/04 05:05:06;;;;;;;9.07;4.30;;;;;;;;;;5036656;28;20040;-79
2023/05/04 05:07:31;;;;;;;12.45;4.40;;;;;;;;;;5037654;28;20030;-80
2023/05/04 05:09:57;;;;;;;7.70;4.13;;;;;;;;;;5036946;28;20108;-79
2023/05/04 05:12:22;;;;;;;8.05;4.20;;;;;;;;;;5035984;28;20027;-79
2023/05/04 05:14:49;;;;;;;6.80;4.30;;;;;;;;;;5034194;28;20022;-78
2023/05/04 05:17:14;;;;;;;8.70;4.18;;;;;;;;;;5033263;28;20258;-76
2023/05/04 05:19:40;;;;;;;9.73;4.22;;;;;;;;;;5033050;28;20515;-76
2023/05/04 05:22:05;;;;;;;7.63;4.27;;;;;;;;;;5033599;28;20033;-77
2023/05/04 05:24:30;;;;;;;8.43;4.65;;;;;;;;;;5033263;28;20263;-77
2023/05/04 05:26:57;;;;;;;7.93;4.35;;;;;;;;;;5033510;28;20441;-77
2023/05/04 05:29:22;;;;;;;8.13;4.82;;;;;;;;;;5033563;28;20021;-77
2023/05/04 05:31:47;;;;;;;7.28;4.40;;;;;;;;;;5033444;28;20029;-77
2023/05/04 05:34:12;;;;;;;8.17;4.43;;;;;;;;;;5033922;28;20503;-78
2023/05/04 05:36:38;;;;;;;12.47;4.63;;;;;;;;;;5033519;28;20634;-77
2023/05/04 05:39:03;;;;;;;6.60;4.40;;;;;;;;;;5033816;28;20725;-77
2023/05/04 05:41:28;;;;;;;8.68;4.75;;;;;;;;;;5032024;28;20074;-77
2023/05/04 05:43:54;;;;;;;8.73;4.33;;;;;;;;;;5033297;28;20497;-77
2023/05/04 05:46:19;;;;;;;8.27;4.47;;;;;;;;;;5031958;28;20258;-77
2023/05/04 05:48:44;;;;;;;11.90;4.50;;;;;;;;;;5033111;28;20281;-81
2023/05/04 05:51:10;;;;;;;11.82;5.30;;;;;;;;;;5032589;28;20033;-76
2023/05/04 05:53:35;;;;;;;9.73;5.20;;;;;;;;;;5032820;28;20025;-77
2023/05/04 05:56:00;;;;;;;7.80;4.93;;;;;;;;;;5032540;28;20251;-77
2023/05/04 05:58:25;;;;;;;10.75;5.05;;;;;;;;;;5032561;28;20021;-77
2023/05/04 06:00:51;;;;;;;8.35;5.07;;;;;;;;;;5032945;28;20548;-77
2023/05/04 06:03:16;;;;;;;12.90;4.93;;;;;;;;;;5033235;28;20029;-77
2023/05/04 06:05:41;;;;;;;7.15;4.43;;;;;;;;;;5032925;28;20349;-77
2023/05/04 06:08:06;;;;;;;10.18;4.47;;;;;;;;;;5033300;28;20030;-77
2023/05/04 06:10:32;;;;;;;9.90;4.47;;;;;;;;;;5032836;28;20022;-77
2023/05/04 06:12:57;;;;;;;7.60;4.75;;;;;;;;;;5033346;28;20440;-76
2023/05/04 06:15:22;;;;;;;9.25;4.78;;;;;;;;;;5033523;28;20030;-77
2023/05/04 06:17:48;;;;;;;10.57;4.70;;;;;;;;;;5032619;28;20457;-77
2023/05/04 06:20:14;;;;;;;10.30;4.82;;;;;;;;;;5031640;28;20025;-77
2023/05/04 06:22:39;;;;;;;7.97;4.78;;;;;;;;;;5032917;28;20104;-77
2023/05/04 06:25:05;;;;;;;8.48;4.25;;;;;;;;;;5031471;28;20033;-77
2023/05/04 06:27:31;;;;;;;10.38;4.43;;;;;;;;;;5034747;28;20033;-77
2023/05/04 06:29:56;;;;;;;9.82;4.70;;;;;;;;;;5032980;28;20116;-77
2023/05/04 06:32:22;;;;;;;7.63;4.10;;;;;;;;;;5034731;28;20112;-76
2023/05/04 06:34:47;;;;;;;11.37;4.40;;;;;;;;;;5035725;28;20083;-77
2023/05/04 06:37:12;;;;;;;8.87;4.43;;;;;;;;;;5035301;28;20642;-76
2023/05/04 06:39:37;;;;;;;8.63;4.80;;;;;;;;;;5036627;28;20274;-80
2023/05/04 06:42:03;;;;;;;8.43;5.00;;;;;;;;;;5037557;28;20262;-78
2023/05/04 06:44:28;;;;;;;9.43;4.40;;;;;;;;;;5037240;28;20347;-77
2023/05/04 06:46:53;;;;;;;8.35;4.32;;;;;;;;;;5036726;28;20100;-78
2023/05/04 06:49:19;;;;;;;9.57;4.28;;;;;;;;;;5034197;28;20033;-77
2023/05/04 06:51:44;;;;;;;6.30;4.22;;;;;;;;;;5034382;28;20025;-77
2023/05/04 06:54:10;;;;;;;7.20;3.95;;;;;;;;;;5035214;28;20025;-77
2023/05/04 06:56:38;;;;;;;7.75;4.05;;;;;;;;;;5035938;28;20071;-77
2023/05/04 06:59:04;;;;;;;8.18;3.90;;;;;;;;;;5034423;28;20087;-77
2023/05/04 07:01:30;;;;;;;5.25;3.15;;;;;;;;;;5036596;28;20094;-77
2023/05/04 07:03:57;;;;;;;9.45;3.47;;;;;;;;;;5035519;28;20484;-76
2023/05/04 07:06:25;;;;;;;8.02;3.30;;;;;;;;;;5036314;28;20026;-77
2023/05/04 07:08:50;;;;;;;7.60;3.60;;;;;;;;;;5034886;28;20143;-76
2023/05/04 07:11:15;;;;;;;6.93;3.40;;;;;;;;;;5033418;28;20033;-76
2023/05/04 07:13:41;;;;;;;5.67;3.07;;;;;;;;;;5033928;28;20285;-76
2023/05/04 07:16:07;;;;;;;5.68;3.00;;;;;;;;;;5032589;28;20267;-76
2023/05/04 07:18:32;;;;;;;7.63;2.75;;;;;;;;;;5033666;28;20017;-77
2023/05/04 07:20:58;;;;;;;4.70;2.60;;;;;;;;;;5032602;28;20029;-77
2023/05/04 07:23:23;;;;;;;6.60;2.70;;;;;;;;;;5032222;28;20026;-76
2023/05/04 07:25:48;;;;;;;7.53;2.60;;;;;;;;;;5033876;28;20258;-76
2023/05/04 07:28:15;;;;;;;6.55;2.60;;;;;;;;;;5033095;28;20029;-76
2023/05/04 07:30:40;;;;;;;7.05;2.38;;;;;;;;;;5034515;28;20108;-77
2023/05/04 07:33:05;;;;;;;8.83;2.77;;;;;;;;;;5035986;28;20149;-77
2023/05/04 07:35:31;;;;;;;4.10;2.40;;;;;;;;;;5035733;28;20290;-77
2023/05/04 07:37:56;;;;;;;7.30;2.70;;;;;;;;;;5035422;28;20274;-77
2023/05/04 07:40:21;;;;;;;8.67;2.67;;;;;;;;;;5035830;28;20381;-77
2023/05/04 07:42:46;;;;;;;4.97;2.35;;;;;;;;;;5035169;28;20603;-76
2023/05/04 07:45:13;;;;;;;5.45;2.50;;;;;;;;;;5035629;28;20052;-76
2023/05/04 07:47:38;;;;;;;8.43;3.08;;;;;;;;;;5035247;28;20029;-76
2023/05/04 07:50:04;;;;;;;4.33;2.50;;;;;;;;;;5033994;28;20036;-76
2023/05/04 07:52:29;;;;;;;6.85;2.40;;;;;;;;;;5035269;28;20263;-76
2023/05/04 07:54:54;;;;;;;9.00;2.23;;;;;;;;;;5035251;28;20489;-76
2023/05/04 07:57:20;;;;;;;5.72;2.28;;;;;;;;;;5033734;28;20824;-76
2023/05/04 07:59:45;;;;;;;3.85;2.20;;;;;;;;;;5036642;28;20035;-77
2023/05/04 08:02:11;;;;;;;5.20;2.30;;;;;;;;;;5035330;28;20032;-75
2023/05/04 08:04:36;;;;;;;7.93;2.35;;;;;;;;;;5034427;28;20022;-77
2023/05/04 08:07:02;;;;;;;5.88;2.45;;;;;;;;;;5035562;28;20030;-78
2023/05/04 08:09:27;;;;;;;5.50;2.10;;;;;;;;;;5036353;28;20022;-76
2023/05/04 08:11:52;;;;;;;5.83;2.20;;;;;;;;;;5035287;28;20369;-77
2023/05/04 08:14:17;;;;;;;4.47;1.95;;;;;;;;;;5034596;28;20630;-76
2023/05/04 08:16:43;;;;;;;5.55;2.20;;;;;;;;;;5035172;28;20029;-77
2023/05/04 08:19:08;;;;;;;5.38;2.25;;;;;;;;;;5034881;28;20080;-76
2023/05/04 08:21:34;;;;;;;7.10;2.50;;;;;;;;;;5034763;28;20029;-76
2023/05/04 08:24:00;;;;;;;5.97;2.33;;;;;;;;;;5034721;28;20045;-76
2023/05/04 08:26:25;;;;;;;5.77;2.23;;;;;;;;;;5034515;28;20025;-76
2023/05/04 08:28:51;;;;;;;4.60;2.00;;;;;;;;;;5034707;28;20281;-76
2023/05/04 08:31:20;;;;;;;9.45;2.22;;;;;;;;;;5034471;28;20118;-76
2023/05/04 08:33:45;;;;;;;8.45;2.50;;;;;;;;;;5034587;28;20025;-77
2023/05/04 08:36:10;;;;;;;4.32;2.28;;;;;;;;;;5033161;28;20040;-76
2023/05/04 08:38:36;;;;;;;10.10;2.20;;;;;;;;;;5032533;28;20400;-75
2023/05/04 08:41:04;;;;;;;4.55;2.22;;;;;;;;;;5032483;28;20030;-76
2023/05/04 08:43:32;;;;;;;6.60;2.47;;;;;;;;;;5032221;28;20374;-76
2023/05/04 08:45:58;;;;;;;8.98;2.50;;;;;;;;;;5032926;28;20026;-74
2023/05/04 08:48:23;;;;;;;5.75;2.35;;;;;;;;;;5031119;28;20036;-76
2023/05/04 08:50:48;;;;;;;7.53;2.15;;;;;;;;;;5030879;28;20029;-75
2023/05/04 08:53:17;;;;;;;4.53;2.10;;;;;;;;;;5031463;28;20115;-75
2023/05/04 08:55:45;;;;;;;6.72;2.38;;;;;;;;;;5032778;28;20051;-76
2023/05/04 08:58:12;;;;;;;6.70;2.10;;;;;;;;;;5033932;28;20018;-77
2023/05/04 09:00:38;;;;;;;9.90;2.60;;;;;;;;;;5032772;28;20079;-75
2023/05/04 09:03:06;;;;;;;7.00;2.50;;;;;;;;;;5032728;28;20030;-75
2023/05/04 09:05:31;;;;;;;6.32;2.30;;;;;;;;;;5033509;28;20033;-75
2023/05/04 09:07:57;;;;;;;6.28;2.20;;;;;;;;;;5033609;28;20366;-75
2023/05/04 09:10:23;;;;;;;8.57;2.78;;;;;;;;;;5033941;28;20048;-78
2023/05/04 09:12:49;;;;;;;4.55;2.28;;;;;;;;;;5033694;28;20043;-76
2023/05/04 09:15:21;;;;;;;7.00;2.40;;;;;;;;;;5070856;28;20348;-76
2023/05/04 09:17:57;;;;;;;5.45;2.13;;;;;;;;;;5070132;28;20094;-76
2023/05/04 09:20:22;;;;;;;6.78;2.20;;;;;;;;;;5068913;28;20111;-76
2023/05/04 09:23:07;;;;;;;5.90;2.10;;;;;;;;;;5070065;28;20098;-76
2023/05/04 09:25:33;;;;;;;6.03;2.50;;;;;;;;;;5068981;28;20032;-76
2023/05/04 09:27:59;;;;;;;5.80;2.40;;;;;;;;;;5068389;28;20056;-76
2023/05/04 09:30:25;;;;;;;5.47;2.13;;;;;;;;;;5068796;28;20055;-76
2023/05/04 09:32:51;;;;;;;6.47;2.85;;;;;;;;;;5069736;28;20467;-76
2023/05/04 09:35:27;;;;;;;9.98;2.78;;;;;;;;;;5069753;28;20480;-76
2023/05/04 09:37:52;;;;;;;7.82;3.03;;;;;;;;;;5069835;28;20029;-76
2023/05/04 09:40:28;;;;;;;5.70;2.20;;;;;;;;;;5069807;28;20514;-76
2023/05/04 09:42:56;;;;;;;6.35;2.35;;;;;;;;;;5069774;28;20729;-76
2023/05/04 09:45:22;;;;;;;6.53;2.20;;;;;;;;;;5069639;28;20116;-76
2023/05/04 09:47:47;;;;;;;5.22;2.30;;;;;;;;;;5068323;28;20067;-75
2023/05/04 09:50:17;;;;;;;5.40;1.95;;;;;;;;;;5069581;28;20032;-76
2023/05/04 09:52:44;;;;;;;5.65;2.35;;;;;;;;;;5069476;28;20446;-76
2023/05/04 09:55:19;;;;;;;7.57;2.30;;;;;;;;;;5068250;28;20017;-75
2023/05/04 09:57:46;;;;;;;4.75;1.98;;;;;;;;;;5069526;28;20488;-76
2023/05/04 10:00:14;;;;;;;3.78;1.95;;;;;;;;;;5069555;28;20040;-76
2023/05/04 10:02:41;;;;;;;5.03;2.20;;;;;;;;;;5069212;28;20024;-75
2023/05/04 10:05:08;;;;;;;10.27;2.30;;;;;;;;;;5069303;28;20024;-76
2023/05/04 10:07:33;;;;;;;5.55;2.22;;;;;;;;;;5069607;28;20036;-75
2023/05/04 10:09:59;;;;;;;6.30;2.45;;;;;;;;;;5069463;28;20020;-75
2023/05/04 10:12:24;;;;;;;6.43;2.25;;;;;;;;;;5069292;28;20020;-75
2023/05/04 10:14:50;;;;;;;7.30;2.13;;;;;;;;;;5069050;28;20128;-76
2023/05/04 10:17:40;;;;;;;5.28;2.13;;;;;;;;;;5069084;28;20029;-76
2023/05/04 10:20:44;;;;;;;3.08;1.90;;;;;;;;;;5069088;28;20029;-75
2023/05/04 10:23:33;;;;;;;4.05;2.00;;;;;;;;;;5069488;28;20541;-76
2023/05/04 10:26:46;;;;;;;4.75;2.10;;;;;;;;;;5061840;28;20035;-77
2023/05/04 10:29:17;;;;;;;2.97;1.70;;;;;;;;;;5033950;28;20104;-77
2023/05/04 10:31:43;;;;;;;8.13;2.38;;;;;;;;;;5051597;28;20029;-76
2023/05/04 10:34:09;;;;;;;3.38;1.90;;;;;;;;;;5055910;28;20028;-76
2023/05/04 10:36:38;;;;;;;4.00;2.20;;;;;;;;;;5054386;28;20025;-76
2023/05/04 10:39:15;;;;;;;4.80;2.05;;;;;;;;;;5054725;28;20408;-77
2023/05/04 10:41:40;;;;;;;4.63;2.10;;;;;;;;;;5054569;28;20021;-76
2023/05/04 10:44:08;;;;;;;6.27;2.23;;;;;;;;;;5055544;28;20491;-76
2023/05/04 10:46:34;;;;;;;5.63;1.95;;;;;;;;;;5054218;28;20258;-77
2023/05/04 10:48:59;;;;;;;5.47;2.10;;;;;;;;;;5055619;28;20025;-76
2023/05/04 10:51:25;;;;;;;4.85;1.80;;;;;;;;;;5053957;28;20484;-76
2023/05/04 10:53:51;;;;;;;6.10;2.00;;;;;;;;;;5055287;28;20116;-77
2023/05/04 10:56:20;;;;;;;5.82;1.92;;;;;;;;;;5055138;28;20459;-76
2023/05/04 10:58:46;;;;;;;10.98;2.30;;;;;;;;;;5055181;28;20078;-75
2023/05/04 11:01:12;;;;;;;5.03;2.40;;;;;;;;;;5055516;28;20036;-76
2023/05/04 11:03:39;;;;;;;7.47;2.15;;;;;;;;;;5055204;28;20029;-76
2023/05/04 11:06:17;;;;;;;5.75;2.00;;;;;;;;;;5054270;28;20380;-76
2023/05/04 11:08:44;;;;;;;8.05;2.00;;;;;;;;;;5055719;28;20029;-75
2023/05/04 11:11:09;;;;;;;6.95;1.95;;;;;;;;;;5054913;28;20427;-76
2023/05/04 11:13:45;;;;;;;5.95;2.40;;;;;;;;;;5054660;28;20058;-76
2023/05/04 11:16:13;;;;;;;6.15;2.20;;;;;;;;;;5055372;28;20503;-76
2023/05/04 11:18:39;;;;;;;7.07;2.08;;;;;;;;;;5054858;28;20047;-75
2023/05/04 11:21:05;;;;;;;4.30;2.00;;;;;;;;;;5054995;28;20135;-75
2023/05/04 11:23:31;;;;;;;5.18;1.90;;;;;;;;;;5053410;28;20108;-76
2023/05/04 11:25:56;;;;;;;5.95;2.28;;;;;;;;;;5054802;28;20025;-76
2023/05/04 11:28:34;;;;;;;9.40;2.07;;;;;;;;;;5054903;28;20031;-76
2023/05/04 11:31:01;;;;;;;4.55;2.08;;;;;;;;;;5054611;28;20265;-75
2023/05/04 11:33:26;;;;;;;2.92;1.60;;;;;;;;;;5053417;28;20025;-76
2023/05/04 11:35:58;;;;;;;4.13;1.60;;;;;;;;;;5054475;28;20503;-76
2023/05/04 11:38:24;;;;;;;6.05;1.98;;;;;;;;;;5053677;28;20253;-75
2023/05/04 11:40:49;;;;;;;6.35;1.85;;;;;;;;;;5054707;28;20025;-74
2023/05/04 11:43:15;;;;;;;3.80;1.70;;;;;;;;;;5054514;28;20029;-75
2023/05/04 11:45:41;;;;;;;7.57;2.10;;;;;;;;;;5054681;28;20023;-76
2023/05/04 11:48:07;;;;;;;6.25;2.00;;;;;;;;;;5053356;28;20029;-75
2023/05/04 11:50:33;;;;;;;3.88;1.70;;;;;;;;;;5054154;28;20025;-75
2023/05/04 11:53:07;;;;;;;4.53;1.73;;;;;;;;;;5054039;28;20032;-74
2023/05/04 11:55:33;;;;;;;4.38;2.08;;;;;;;;;;5052978;28;20032;-75
2023/05/04 11:58:01;;;;;;;6.70;2.17;;;;;;;;;;5053608;28;20029;-75
2023/05/04 12:00:40;;;;;;;5.68;1.70;;;;;;;;;;5051935;28;20114;-75
2023/05/04 12:03:13;;;;;;;8.38;1.98;;;;;;;;;;5051766;28;20020;-75
2023/05/04 12:05:45;;;;;;;2.90;1.60;;;;;;;;;;5053407;28;20441;-75
2023/05/04 12:08:25;;;;;;;5.18;1.88;;;;;;;;;;5052479;28;20170;-75
2023/05/04 12:11:06;;;;;;;4.43;1.90;;;;;;;;;;5052921;28;20025;-75
2023/05/04 12:13:32;;;;;;;4.28;2.13;;;;;;;;;;5053724;28;20021;-76
2023/05/04 12:16:09;;;;;;;5.17;1.70;;;;;;;;;;5053245;28;20108;-78
2023/05/04 12:18:34;;;;;;;5.13;1.80;;;;;;;;;;5054845;28;20274;-78
2023/05/04 12:21:17;;;;;;;3.05;1.52;;;;;;;;;;5052725;28;20450;-76
2023/05/04 12:23:43;;;;;;;5.72;1.77;;;;;;;;;;5052415;28;20028;-76
2023/05/04 12:26:09;;;;;;;5.13;1.70;;;;;;;;;;5052126;28;20091;-76
2023/05/04 12:28:35;;;;;;;5.50;1.70;;;;;;;;;;5051779;28;20028;-75
2023/05/04 12:31:01;;;;;;;6.53;1.92;;;;;;;;;;5051779;28;20035;-76
2023/05/04 12:33:26;;;;;;;4.97;1.80;;;;;;;;;;5055433;28;20021;-76
2023/05/04 12:35:52;;;;;;;5.87;1.90;;;;;;;;;;5052603;28;20399;-75
2023/05/04 12:38:17;;;;;;;5.40;1.63;;;;;;;;;;5053542;28;20628;-76
2023/05/04 12:40:42;;;;;;;5.40;1.80;;;;;;;;;;5053828;28;20504;-75
2023/05/04 12:43:08;;;;;;;4.45;1.70;;;;;;;;;;5053948;28;20633;-77
2023/05/04 12:45:34;;;;;;;4.90;1.77;;;;;;;;;;5052078;28;20025;-76
2023/05/04 12:47:59;;;;;;;4.93;2.15;;;;;;;;;;5052723;28;20033;-74
2023/05/04 12:50:24;;;;;;;5.32;2.00;;;;;;;;;;5053221;28;20498;-75
2023/05/04 12:52:50;;;;;;;4.93;2.10;;;;;;;;;;5051087;28;20021;-75
2023/05/04 12:55:15;;;;;;;4.53;1.67;;;;;;;;;;5053044;28;20270;-75
2023/05/04 12:57:43;;;;;;;4.73;1.53;;;;;;;;;;5053464;28;20423;-76
2023/05/04 13:00:09;;;;;;;5.78;1.95;;;;;;;;;;5053207;28;20250;-76
2023/05/04 13:02:35;;;;;;;3.22;1.58;;;;;;;;;;5054134;28;20071;-79
2023/05/04 13:05:00;;;;;;;5.27;1.83;;;;;;;;;;5053472;28;20049;-75
2023/05/04 13:07:26;;;;;;;5.20;2.20;;;;;;;;;;5051848;28;20337;-78
2023/05/04 13:09:51;;;;;;;6.00;2.28;;;;;;;;;;5055225;28;20266;-77
2023/05/04 13:12:16;;;;;;;5.30;2.22;;;;;;;;;;5053436;28;20025;-78
2023/05/04 13:14:41;;;;;;;4.28;1.77;;;;;;;;;;5051632;28;20025;-75
2023/05/04 13:17:07;;;;;;;5.67;1.73;;;;;;;;;;5052055;28;20404;-75
2023/05/04 13:19:32;;;;;;;5.10;2.20;;;;;;;;;;5052320;28;20611;-75
2023/05/04 13:21:57;;;;;;;5.70;1.70;;;;;;;;;;5052495;28;20640;-75
2023/05/04 13:24:22;;;;;;;4.93;1.70;;;;;;;;;;5051169;28;20316;-75
2023/05/04 13:26:48;;;;;;;6.17;1.70;;;;;;;;;;5052417;28;20264;-75
2023/05/04 13:29:13;;;;;;;4.13;1.90;;;;;;;;;;5052365;28;20344;-75
2023/05/04 13:31:38;;;;;;;4.93;2.07;;;;;;;;;;5051043;28;20293;-75
2023/05/04 13:34:04;;;;;;;5.78;2.00;;;;;;;;;;5052434;28;20301;-75
2023/05/04 13:36:29;;;;;;;6.85;1.95;;;;;;;;;;5052605;28;20032;-76
2023/05/04 13:38:54;;;;;;;9.45;2.17;;;;;;;;;;5052478;28;20051;-75
2023/05/04 13:41:20;;;;;;;6.90;2.00;;;;;;;;;;5052940;28;20112;-75
2023/05/04 13:43:45;;;;;;;4.18;1.50;;;;;;;;;;5052592;28;20353;-76
2023/05/04 13:46:11;;;;;;;3.40;1.90;;;;;;;;;;5051020;28;20049;-76
2023/05/04 13:48:36;;;;;;;3.33;1.70;;;;;;;;;;5052431;28;20070;-75
2023/05/04 13:51:02;;;;;;;7.20;1.75;;;;;;;;;;5052183;28;20097;-75
2023/05/04 13:53:28;;;;;;;4.68;2.03;;;;;;;;;;5052090;28;20400;-75
2023/05/04 13:55:53;;;;;;;4.35;2.00;;;;;;;;;;5052249;28;20116;-75
2023/05/04 13:58:18;;;;;;;4.20;1.77;;;;;;;;;;5052157;28;20020;-75
2023/05/04 14:00:43;;;;;;;4.73;1.70;;;;;;;;;;5053572;28;20250;-75
2023/05/04 14:03:08;;;;;;;6.40;1.93;;;;;;;;;;5056187;28;20253;-75
2023/05/04 14:05:34;;;;;;;3.75;1.67;;;;;;;;;;5054681;28;20258;-75
2023/05/04 14:08:00;;;;;;;5.57;1.83;;;;;;;;;;5055921;28;20065;-75
2023/05/04 14:10:25;;;;;;;6.15;1.92;;;;;;;;;;5055873;28;20051;-75
2023/05/04 14:12:50;;;;;;;3.92;1.70;;;;;;;;;;5055054;28;20020;-76
2023/05/04 14:15:16;;;;;;;5.17;1.70;;;;;;;;;;5055756;28;20036;-76
2023/05/04 14:17:41;;;;;;;6.32;1.75;;;;;;;;;;5055430;28;20258;-75
2023/05/04 14:20:07;;;;;;;4.70;2.00;;;;;;;;;;5055827;28;20472;-75
2023/05/04 14:22:32;;;;;;;3.50;1.80;;;;;;;;;;5055569;28;20267;-75
2023/05/04 14:24:58;;;;;;;3.70;1.58;;;;;;;;;;5055422;28;20029;-75
2023/05/04 14:27:23;;;;;;;5.20;2.08;;;;;;;;;;5055615;28;20087;-75
2023/05/04 14:29:48;;;;;;;6.28;1.50;;;;;;;;;;5053902;28;20021;-75
2023/05/04 14:32:14;;;;;;;3.88;1.80;;;;;;;;;;5055808;28;20044;-75
2023/05/04 14:34:39;;;;;;;4.35;1.63;;;;;;;;;;5053936;28;20032;-75
2023/05/04 14:37:05;;;;;;;2.67;1.60;;;;;;;;;;5053894;28;20032;-75
2023/05/04 14:39:30;;;;;;;3.30;1.70;;;;;;;;;;5053988;28;20029;-75